RYR5604 EDDR-LICA
Flight info
| Callsign | RYR5604 |
|---|---|
| Flight time | 2h 5m |
| Altitude | 37000 |
| Route | GTQ2L GTQ A242 POGOL DCT LASAT DCT BEGAR DCT TRA DCT SUXAN DCT VABOK DCT SUKOM DCT DIPVO DCT KATAR DCT EVULI DCT TEA DCT POLIT/N0341F190 M620 ARBUM |
| Aircraft | B738/M-SDE3FGILRWY/SB1 |
Departure
| Time | 2026-04-24 17:00 |
|---|---|
| Airport | Saarbrücken Airport (EDDR) |
Arrival
| Time | 2026-04-24 19:05 |
|---|---|
| Airport | Lamezia Terme Sant'Eufemia International Airport (LICA) |
| Time | Latitude | Longitude | Altitude | Speed | Heading |
|---|---|---|---|---|---|
| 2026-04-24 16:33 | 49.21856 | 7.11348 | 1066 ft | 0 kts | 346° |
| 2026-04-24 16:54 | 49.21862 | 7.11345 | 1066 ft | 3 kts | 346° |
| 2026-04-24 16:54 | 49.21886 | 7.11317 | 1067 ft | 6 kts | 275° |
| 2026-04-24 16:54 | 49.21872 | 7.11257 | 1067 ft | 7 kts | 249° |
| 2026-04-24 16:55 | 49.21848 | 7.11184 | 1067 ft | 8 kts | 219° |
| 2026-04-24 16:55 | 49.21795 | 7.11183 | 1066 ft | 8 kts | 180° |
| 2026-04-24 16:55 | 49.21744 | 7.11163 | 1066 ft | 7 kts | 198° |
| 2026-04-24 16:55 | 49.21696 | 7.11139 | 1068 ft | 7 kts | 198° |
| 2026-04-24 16:56 | 49.21641 | 7.11111 | 1068 ft | 9 kts | 201° |
| 2026-04-24 16:56 | 49.21609 | 7.11029 | 1065 ft | 10 kts | 263° |
| 2026-04-24 16:56 | 49.21604 | 7.10895 | 1064 ft | 15 kts | 268° |
| 2026-04-24 16:56 | 49.21600 | 7.10730 | 1062 ft | 16 kts | 268° |
| 2026-04-24 16:57 | 49.21595 | 7.10558 | 1058 ft | 17 kts | 267° |
| 2026-04-24 16:57 | 49.21589 | 7.10373 | 1054 ft | 18 kts | 268° |
| 2026-04-24 16:57 | 49.21584 | 7.10191 | 1047 ft | 15 kts | 266° |
| 2026-04-24 16:57 | 49.21567 | 7.10021 | 1034 ft | 13 kts | 251° |
| 2026-04-24 16:58 | 49.21531 | 7.09902 | 1023 ft | 12 kts | 243° |
| 2026-04-24 16:58 | 49.21491 | 7.09776 | 1013 ft | 16 kts | 245° |
| 2026-04-24 16:58 | 49.21448 | 7.09682 | 1007 ft | 7 kts | 224° |
| 2026-04-24 16:58 | 49.21419 | 7.09673 | 1007 ft | 4 kts | 128° |
| 2026-04-24 16:59 | 49.21419 | 7.09714 | 1008 ft | 4 kts | 87° |
| 2026-04-24 16:59 | 49.21427 | 7.09986 | 1020 ft | 62 kts | 87° |
| 2026-04-24 16:59 | 49.21491 | 7.12669 | 1529 ft | 159 kts | 88° |
| 2026-04-24 17:00 | 49.21521 | 7.14391 | 2398 ft | 160 kts | 88° |
| 2026-04-24 17:00 | 49.21601 | 7.18190 | 3474 ft | 202 kts | 89° |
| 2026-04-24 17:00 | 49.21338 | 7.20394 | 3817 ft | 223 kts | 115° |
| 2026-04-24 17:01 | 49.18754 | 7.22835 | 4890 ft | 239 kts | 185° |
| 2026-04-24 17:01 | 49.17194 | 7.21976 | 5605 ft | 244 kts | 219° |
| 2026-04-24 17:02 | 49.15225 | 7.18923 | 6989 ft | 245 kts | 234° |
| 2026-04-24 17:02 | 49.14582 | 7.15595 | 7704 ft | 262 kts | 274° |
| 2026-04-24 17:02 | 49.14849 | 7.12726 | 8107 ft | 279 kts | 280° |
| 2026-04-24 17:02 | 49.15070 | 7.09745 | 8889 ft | 284 kts | 274° |
| 2026-04-24 17:03 | 49.15179 | 7.03637 | 10480 ft | 293 kts | 271° |
| 2026-04-24 17:03 | 49.14970 | 7.00470 | 10714 ft | 318 kts | 251° |
| 2026-04-24 17:03 | 49.13778 | 6.97504 | 11013 ft | 338 kts | 230° |
| 2026-04-24 17:04 | 49.12187 | 6.94786 | 11618 ft | 347 kts | 228° |
| 2026-04-24 17:04 | 49.08912 | 6.89280 | 13140 ft | 353 kts | 228° |
| 2026-04-24 17:04 | 49.07268 | 6.86483 | 13874 ft | 356 kts | 229° |
| 2026-04-24 17:05 | 49.05610 | 6.83644 | 14586 ft | 359 kts | 229° |
| 2026-04-24 17:05 | 49.03943 | 6.80778 | 15295 ft | 362 kts | 229° |
| 2026-04-24 17:05 | 49.00588 | 6.75019 | 16626 ft | 369 kts | 227° |
| 2026-04-24 17:06 | 48.98577 | 6.72586 | 17229 ft | 374 kts | 206° |
| 2026-04-24 17:06 | 48.94350 | 6.71261 | 18337 ft | 377 kts | 182° |
| 2026-04-24 17:06 | 48.91711 | 6.71175 | 18937 ft | 381 kts | 181° |
| 2026-04-24 17:07 | 48.89043 | 6.71129 | 19516 ft | 385 kts | 181° |
| 2026-04-24 17:07 | 48.85461 | 6.71056 | 20262 ft | 390 kts | 181° |
| 2026-04-24 17:07 | 48.80897 | 6.70920 | 21211 ft | 394 kts | 181° |
| 2026-04-24 17:08 | 48.75364 | 6.70716 | 22257 ft | 400 kts | 182° |
| 2026-04-24 17:08 | 48.72575 | 6.70609 | 22748 ft | 403 kts | 182° |
| 2026-04-24 17:08 | 48.69792 | 6.70502 | 23241 ft | 406 kts | 182° |
| 2026-04-24 17:09 | 48.64102 | 6.70284 | 24181 ft | 411 kts | 182° |
| 2026-04-24 17:09 | 48.58342 | 6.70052 | 25065 ft | 417 kts | 182° |
| 2026-04-24 17:10 | 48.55434 | 6.69932 | 25502 ft | 419 kts | 182° |
| 2026-04-24 17:10 | 48.46614 | 6.69572 | 26750 ft | 426 kts | 182° |
| 2026-04-24 17:11 | 48.37651 | 6.69212 | 27859 ft | 432 kts | 181° |
| 2026-04-24 17:12 | 48.22467 | 6.68661 | 29525 ft | 442 kts | 179° |
| 2026-04-24 18:54 | 38.90466 | 16.26574 | 11458 ft | 320 kts | 129° |
| 2026-04-24 18:55 | 38.88222 | 16.31447 | 10799 ft | 317 kts | 116° |
| 2026-04-24 18:55 | 38.87192 | 16.33947 | 10469 ft | 317 kts | 116° |
| 2026-04-24 18:55 | 38.86155 | 16.36434 | 10213 ft | 314 kts | 116° |
| 2026-04-24 18:56 | 38.85122 | 16.38875 | 10042 ft | 309 kts | 117° |
| 2026-04-24 18:56 | 38.84120 | 16.41222 | 10044 ft | 299 kts | 117° |
| 2026-04-24 18:56 | 38.83134 | 16.43517 | 10027 ft | 289 kts | 117° |
| 2026-04-24 18:56 | 38.82172 | 16.45751 | 9940 ft | 282 kts | 117° |
| 2026-04-24 18:57 | 38.81226 | 16.47945 | 9724 ft | 280 kts | 117° |
| 2026-04-24 18:57 | 38.80280 | 16.50132 | 9481 ft | 280 kts | 117° |
| 2026-04-24 18:57 | 38.79335 | 16.52314 | 9244 ft | 280 kts | 117° |
| 2026-04-24 18:57 | 38.78479 | 16.54541 | 8984 ft | 278 kts | 104° |
| 2026-04-24 18:58 | 38.78146 | 16.56950 | 8780 ft | 274 kts | 95° |
| 2026-04-24 18:58 | 38.77886 | 16.59366 | 8563 ft | 273 kts | 95° |
| 2026-04-24 18:58 | 38.77952 | 16.61755 | 8338 ft | 267 kts | 70° |
| 2026-04-24 18:58 | 38.78860 | 16.63747 | 8268 ft | 255 kts | 44° |
| 2026-04-24 18:59 | 38.80282 | 16.65040 | 8123 ft | 249 kts | 22° |
| 2026-04-24 18:59 | 38.81928 | 16.65603 | 7908 ft | 249 kts | 8° |
| 2026-04-24 18:59 | 38.83642 | 16.65473 | 7651 ft | 250 kts | 340° |
| 2026-04-24 18:59 | 38.85084 | 16.64262 | 7436 ft | 251 kts | 313° |
| 2026-04-24 19:00 | 38.85985 | 16.62329 | 6939 ft | 259 kts | 288° |
| 2026-04-24 19:00 | 38.86325 | 16.60040 | 6395 ft | 263 kts | 281° |
| 2026-04-24 19:00 | 38.86596 | 16.57693 | 5823 ft | 267 kts | 280° |
| 2026-04-24 19:00 | 38.86872 | 16.55328 | 5250 ft | 270 kts | 280° |
| 2026-04-24 19:01 | 38.87157 | 16.52941 | 4679 ft | 271 kts | 281° |
| 2026-04-24 19:01 | 38.87502 | 16.50550 | 4102 ft | 273 kts | 282° |
| 2026-04-24 19:01 | 38.87815 | 16.48147 | 3533 ft | 274 kts | 280° |
| 2026-04-24 19:01 | 38.88087 | 16.45758 | 3082 ft | 262 kts | 280° |
| 2026-04-24 19:02 | 38.88253 | 16.44258 | 2835 ft | 250 kts | 279° |
| 2026-04-24 19:02 | 38.88572 | 16.41431 | 2407 ft | 229 kts | 279° |
| 2026-04-24 19:02 | 38.88796 | 16.39475 | 2128 ft | 213 kts | 278° |
| 2026-04-24 19:02 | 38.89003 | 16.37663 | 1847 ft | 198 kts | 278° |
| 2026-04-24 19:03 | 38.89194 | 16.35983 | 1594 ft | 183 kts | 278° |
| 2026-04-24 19:03 | 38.89372 | 16.34425 | 1358 ft | 169 kts | 278° |
| 2026-04-24 19:03 | 38.89535 | 16.33007 | 1173 ft | 153 kts | 278° |
| 2026-04-24 19:03 | 38.89683 | 16.31708 | 955 ft | 145 kts | 278° |
| 2026-04-24 19:04 | 38.89826 | 16.30456 | 779 ft | 139 kts | 278° |
| 2026-04-24 19:04 | 38.89961 | 16.29218 | 632 ft | 141 kts | 277° |
| 2026-04-24 19:04 | 38.90103 | 16.27953 | 385 ft | 145 kts | 278° |
| 2026-04-24 19:04 | 38.90251 | 16.26697 | 178 ft | 141 kts | 278° |
| 2026-04-24 19:05 | 38.90395 | 16.25452 | 30 ft | 137 kts | 278° |
| 2026-04-24 19:05 | 38.90510 | 16.24485 | 31 ft | 81 kts | 278° |
| 2026-04-24 19:05 | 38.90572 | 16.23961 | 29 ft | 52 kts | 278° |
| 2026-04-24 19:05 | 38.90622 | 16.23682 | 32 ft | 21 kts | 295° |
| 2026-04-24 19:06 | 38.90686 | 16.23562 | 32 ft | 15 kts | 307° |
| 2026-04-24 19:06 | 38.90751 | 16.23483 | 32 ft | 11 kts | 339° |
| 2026-04-24 19:06 | 38.90826 | 16.23508 | 30 ft | 12 kts | 46° |
| 2026-04-24 19:06 | 38.90836 | 16.23606 | 31 ft | 11 kts | 97° |
| 2026-04-24 19:07 | 38.90825 | 16.23705 | 29 ft | 11 kts | 99° |
| 2026-04-24 19:07 | 38.90813 | 16.23801 | 31 ft | 11 kts | 99° |
| 2026-04-24 19:07 | 38.90805 | 16.23872 | 30 ft | 15 kts | 98° |
| 2026-04-24 19:07 | 38.90782 | 16.24065 | 29 ft | 17 kts | 99° |
| 2026-04-24 19:08 | 38.90787 | 16.24177 | 31 ft | 12 kts | 54° |
| 2026-04-24 19:08 | 38.90829 | 16.24260 | 31 ft | 10 kts | 80° |
| 2026-04-24 19:08 | 38.90826 | 16.24334 | 31 ft | 5 kts | 85° |
| 2026-04-24 19:08 | 38.90855 | 16.24357 | 31 ft | 3 kts | 11° |
| 2026-04-24 19:09 | 38.90871 | 16.24361 | 31 ft | 2 kts | 25° |
| 2026-04-24 19:09 | 38.90882 | 16.24373 | 31 ft | 1 kts | 42° |